sensor_id;sensor_type;location;lat;lon;timestamp;P1;durP1;ratioP1;P2;durP2;ratioP2
69779;SDS011;57052;55.602;38.096;2022-11-15T00:01:43;1.23;;;0.73;;
69779;SDS011;57052;55.602;38.096;2022-11-15T00:04:09;2.35;;;0.90;;
69779;SDS011;57052;55.602;38.096;2022-11-15T00:06:35;2.50;;;0.70;;
69779;SDS011;57052;55.602;38.096;2022-11-15T00:09:01;1.60;;;0.70;;
69779;SDS011;57052;55.602;38.096;2022-11-15T00:11:27;0.93;;;0.60;;
69779;SDS011;57052;55.602;38.096;2022-11-15T00:13:56;4.53;;;0.88;;
69779;SDS011;57052;55.602;38.096;2022-11-15T00:16:23;3.53;;;0.93;;
69779;SDS011;57052;55.602;38.096;2022-11-15T00:18:49;3.90;;;1.20;;
69779;SDS011;57052;55.602;38.096;2022-11-15T00:21:15;1.95;;;0.80;;
69779;SDS011;57052;55.602;38.096;2022-11-15T00:23:41;2.72;;;0.98;;
69779;SDS011;57052;55.602;38.096;2022-11-15T00:26:06;1.67;;;1.00;;
69779;SDS011;57052;55.602;38.096;2022-11-15T00:28:36;5.15;;;0.98;;
69779;SDS011;57052;55.602;38.096;2022-11-15T00:31:02;1.20;;;0.63;;
69779;SDS011;57052;55.602;38.096;2022-11-15T00:33:30;3.15;;;0.90;;
69779;SDS011;57052;55.602;38.096;2022-11-15T00:35:59;2.22;;;0.80;;
69779;SDS011;57052;55.602;38.096;2022-11-15T00:38:33;3.17;;;0.75;;
69779;SDS011;57052;55.602;38.096;2022-11-15T00:40:59;2.30;;;0.77;;
69779;SDS011;57052;55.602;38.096;2022-11-15T00:43:25;3.03;;;0.90;;
69779;SDS011;57052;55.602;38.096;2022-11-15T00:45:51;1.52;;;0.90;;
69779;SDS011;57052;55.602;38.096;2022-11-15T00:48:16;2.13;;;0.90;;
69779;SDS011;57052;55.602;38.096;2022-11-15T00:50:42;2.50;;;1.05;;
69779;SDS011;57052;55.602;38.096;2022-11-15T00:53:08;3.30;;;0.90;;
69779;SDS011;57052;55.602;38.096;2022-11-15T00:55:33;1.75;;;1.10;;
69779;SDS011;57052;55.602;38.096;2022-11-15T00:57:59;2.58;;;0.70;;
69779;SDS011;57052;55.602;38.096;2022-11-15T01:00:24;2.22;;;0.90;;
69779;SDS011;57052;55.602;38.096;2022-11-15T01:02:50;2.28;;;0.80;;
69779;SDS011;57052;55.602;38.096;2022-11-15T01:05:16;2.92;;;0.82;;
69779;SDS011;57052;55.602;38.096;2022-11-15T01:07:41;2.72;;;0.73;;
69779;SDS011;57052;55.602;38.096;2022-11-15T01:10:07;1.60;;;0.98;;
69779;SDS011;57052;55.602;38.096;2022-11-15T01:12:33;1.20;;;0.80;;
69779;SDS011;57052;55.602;38.096;2022-11-15T01:15:00;1.20;;;0.80;;
69779;SDS011;57052;55.602;38.096;2022-11-15T01:17:26;2.05;;;0.80;;
69779;SDS011;57052;55.602;38.096;2022-11-15T01:19:51;2.67;;;0.90;;
69779;SDS011;57052;55.602;38.096;2022-11-15T01:22:17;3.42;;;0.95;;
69779;SDS011;57052;55.602;38.096;2022-11-15T01:24:43;1.63;;;0.77;;
69779;SDS011;57052;55.602;38.096;2022-11-15T01:27:08;4.05;;;1.05;;
69779;SDS011;57052;55.602;38.096;2022-11-15T01:29:34;2.13;;;0.90;;
69779;SDS011;57052;55.602;38.096;2022-11-15T01:32:00;3.05;;;0.95;;
69779;SDS011;57052;55.602;38.096;2022-11-15T01:34:26;3.83;;;1.00;;
69779;SDS011;57052;55.602;38.096;2022-11-15T01:36:51;3.72;;;1.00;;
69779;SDS011;57052;55.602;38.096;2022-11-15T01:39:17;3.55;;;1.08;;
69779;SDS011;57052;55.602;38.096;2022-11-15T01:41:43;2.63;;;1.20;;
69779;SDS011;57052;55.602;38.096;2022-11-15T01:46:56;3.70;;;1.10;;
69779;SDS011;57052;55.602;38.096;2022-11-15T01:49:24;1.88;;;1.00;;
69779;SDS011;57052;55.602;38.096;2022-11-15T01:51:53;2.35;;;1.10;;
69779;SDS011;57052;55.602;38.096;2022-11-15T01:54:20;2.67;;;0.90;;
69779;SDS011;57052;55.602;38.096;2022-11-15T01:56:59;2.88;;;1.48;;
69779;SDS011;57052;55.602;38.096;2022-11-15T01:59:29;2.72;;;1.38;;
69779;SDS011;57052;55.602;38.096;2022-11-15T02:01:55;4.13;;;1.40;;
69779;SDS011;57052;55.602;38.096;2022-11-15T02:04:23;2.80;;;1.40;;
69779;SDS011;57052;55.602;38.096;2022-11-15T02:06:50;2.55;;;1.25;;
69779;SDS011;57052;55.602;38.096;2022-11-15T02:09:16;4.43;;;1.58;;
69779;SDS011;57052;55.602;38.096;2022-11-15T02:11:42;3.80;;;1.23;;
69779;SDS011;57052;55.602;38.096;2022-11-15T02:14:10;3.65;;;1.30;;
69779;SDS011;57052;55.602;38.096;2022-11-15T02:33:59;3.20;;;1.35;;
69779;SDS011;57052;55.602;38.096;2022-11-15T02:39:51;3.38;;;1.65;;
69779;SDS011;57052;55.602;38.096;2022-11-15T02:42:30;2.10;;;1.25;;
69779;SDS011;57052;55.602;38.096;2022-11-15T02:45:24;2.65;;;1.20;;
69779;SDS011;57052;55.602;38.096;2022-11-15T02:47:56;4.78;;;1.65;;
69779;SDS011;57052;55.602;38.096;2022-11-15T02:50:25;3.20;;;1.55;;
69779;SDS011;57052;55.602;38.096;2022-11-15T02:52:54;7.47;;;1.40;;
69779;SDS011;57052;55.602;38.096;2022-11-15T02:58:21;3.13;;;1.20;;
69779;SDS011;57052;55.602;38.096;2022-11-15T03:09:13;3.53;;;1.70;;
69779;SDS011;57052;55.602;38.096;2022-11-15T03:11:56;4.82;;;1.70;;
69779;SDS011;57052;55.602;38.096;2022-11-15T03:14:36;5.88;;;1.63;;
69779;SDS011;57052;55.602;38.096;2022-11-15T03:17:13;5.35;;;1.90;;
69779;SDS011;57052;55.602;38.096;2022-11-15T03:19:53;3.20;;;1.40;;
69779;SDS011;57052;55.602;38.096;2022-11-15T03:22:22;4.22;;;1.63;;
69779;SDS011;57052;55.602;38.096;2022-11-15T03:24:59;3.65;;;1.60;;
69779;SDS011;57052;55.602;38.096;2022-11-15T03:27:32;3.40;;;1.30;;
69779;SDS011;57052;55.602;38.096;2022-11-15T03:30:02;2.90;;;1.23;;
69779;SDS011;57052;55.602;38.096;2022-11-15T03:32:31;3.00;;;1.50;;
69779;SDS011;57052;55.602;38.096;2022-11-15T03:40:25;4.32;;;1.52;;
69779;SDS011;57052;55.602;38.096;2022-11-15T03:46:19;3.58;;;1.63;;
69779;SDS011;57052;55.602;38.096;2022-11-15T03:49:13;4.60;;;1.85;;
69779;SDS011;57052;55.602;38.096;2022-11-15T03:51:43;5.07;;;2.10;;
69779;SDS011;57052;55.602;38.096;2022-11-15T03:54:11;7.25;;;2.00;;
69779;SDS011;57052;55.602;38.096;2022-11-15T03:56:37;6.10;;;1.83;;
69779;SDS011;57052;55.602;38.096;2022-11-15T03:59:03;4.65;;;1.90;;
69779;SDS011;57052;55.602;38.096;2022-11-15T04:01:29;4.53;;;2.10;;
69779;SDS011;57052;55.602;38.096;2022-11-15T04:03:54;4.68;;;1.88;;
69779;SDS011;57052;55.602;38.096;2022-11-15T04:06:20;5.55;;;2.63;;
69779;SDS011;57052;55.602;38.096;2022-11-15T04:08:45;9.85;;;4.05;;
69779;SDS011;57052;55.602;38.096;2022-11-15T04:11:11;6.03;;;2.63;;
69779;SDS011;57052;55.602;38.096;2022-11-15T04:13:36;5.85;;;2.10;;
69779;SDS011;57052;55.602;38.096;2022-11-15T04:16:02;5.13;;;2.22;;
69779;SDS011;57052;55.602;38.096;2022-11-15T04:18:27;2.78;;;1.60;;
69779;SDS011;57052;55.602;38.096;2022-11-15T04:20:53;4.57;;;1.50;;
69779;SDS011;57052;55.602;38.096;2022-11-15T04:23:37;4.25;;;2.03;;
69779;SDS011;57052;55.602;38.096;2022-11-15T04:26:19;3.72;;;1.40;;
69779;SDS011;57052;55.602;38.096;2022-11-15T04:28:47;3.63;;;1.58;;
69779;SDS011;57052;55.602;38.096;2022-11-15T04:31:31;2.97;;;1.48;;
69779;SDS011;57052;55.602;38.096;2022-11-15T04:33:57;3.63;;;1.50;;
69779;SDS011;57052;55.602;38.096;2022-11-15T04:36:23;4.78;;;1.52;;
69779;SDS011;57052;55.602;38.096;2022-11-15T04:39:07;7.05;;;1.40;;
69779;SDS011;57052;55.602;38.096;2022-11-15T04:41:33;5.82;;;1.52;;
69779;SDS011;57052;55.602;38.096;2022-11-15T04:43:59;3.78;;;1.60;;
69779;SDS011;57052;55.602;38.096;2022-11-15T04:46:25;4.45;;;1.48;;
69779;SDS011;57052;55.602;38.096;2022-11-15T04:48:51;5.38;;;1.55;;
69779;SDS011;57052;55.602;38.096;2022-11-15T04:51:17;4.47;;;1.90;;
69779;SDS011;57052;55.602;38.096;2022-11-15T04:53:43;3.78;;;1.40;;
69779;SDS011;57052;55.602;38.096;2022-11-15T04:56:08;4.50;;;1.90;;
69779;SDS011;57052;55.602;38.096;2022-11-15T04:58:34;5.88;;;1.60;;
69779;SDS011;57052;55.602;38.096;2022-11-15T05:01:13;4.88;;;1.60;;
69779;SDS011;57052;55.602;38.096;2022-11-15T05:03:42;3.72;;;1.40;;
69779;SDS011;57052;55.602;38.096;2022-11-15T05:06:27;3.30;;;1.48;;
69779;SDS011;57052;55.602;38.096;2022-11-15T05:08:53;5.95;;;1.40;;
69779;SDS011;57052;55.602;38.096;2022-11-15T05:11:19;3.55;;;1.50;;
69779;SDS011;57052;55.602;38.096;2022-11-15T05:13:45;7.10;;;1.80;;
69779;SDS011;57052;55.602;38.096;2022-11-15T05:16:12;3.75;;;1.55;;
69779;SDS011;57052;55.602;38.096;2022-11-15T05:18:37;5.60;;;2.08;;
69779;SDS011;57052;55.602;38.096;2022-11-15T05:21:06;6.65;;;1.88;;
69779;SDS011;57052;55.602;38.096;2022-11-15T05:23:33;4.50;;;2.05;;
69779;SDS011;57052;55.602;38.096;2022-11-15T05:25:59;7.88;;;2.10;;
69779;SDS011;57052;55.602;38.096;2022-11-15T05:28:25;5.57;;;1.42;;
69779;SDS011;57052;55.602;38.096;2022-11-15T05:30:51;3.50;;;1.42;;
69779;SDS011;57052;55.602;38.096;2022-11-15T05:33:16;6.75;;;1.80;;
69779;SDS011;57052;55.602;38.096;2022-11-15T05:35:43;3.05;;;1.65;;
69779;SDS011;57052;55.602;38.096;2022-11-15T05:38:14;6.45;;;1.40;;
69779;SDS011;57052;55.602;38.096;2022-11-15T05:40:40;3.17;;;1.30;;
69779;SDS011;57052;55.602;38.096;2022-11-15T05:43:05;4.53;;;1.83;;
69779;SDS011;57052;55.602;38.096;2022-11-15T05:45:31;7.72;;;1.90;;
69779;SDS011;57052;55.602;38.096;2022-11-15T05:47:59;6.72;;;1.70;;
69779;SDS011;57052;55.602;38.096;2022-11-15T05:50:30;14.73;;;1.92;;
69779;SDS011;57052;55.602;38.096;2022-11-15T05:52:56;4.47;;;1.40;;
69779;SDS011;57052;55.602;38.096;2022-11-15T05:55:22;3.65;;;1.38;;
69779;SDS011;57052;55.602;38.096;2022-11-15T05:57:48;4.30;;;1.27;;
69779;SDS011;57052;55.602;38.096;2022-11-15T06:00:13;4.38;;;1.33;;
69779;SDS011;57052;55.602;38.096;2022-11-15T06:02:39;3.83;;;1.45;;
69779;SDS011;57052;55.602;38.096;2022-11-15T06:05:05;6.40;;;1.33;;
69779;SDS011;57052;55.602;38.096;2022-11-15T06:07:31;7.40;;;1.42;;
69779;SDS011;57052;55.602;38.096;2022-11-15T06:09:56;4.88;;;1.30;;
69779;SDS011;57052;55.602;38.096;2022-11-15T06:12:22;5.47;;;1.42;;
69779;SDS011;57052;55.602;38.096;2022-11-15T06:14:47;6.38;;;1.33;;
69779;SDS011;57052;55.602;38.096;2022-11-15T06:17:13;4.38;;;1.33;;
69779;SDS011;57052;55.602;38.096;2022-11-15T06:19:38;8.38;;;1.52;;
69779;SDS011;57052;55.602;38.096;2022-11-15T06:22:04;3.97;;;1.40;;
69779;SDS011;57052;55.602;38.096;2022-11-15T06:24:29;2.10;;;1.25;;
69779;SDS011;57052;55.602;38.096;2022-11-15T06:26:55;6.72;;;1.75;;
69779;SDS011;57052;55.602;38.096;2022-11-15T06:29:21;5.05;;;1.40;;
69779;SDS011;57052;55.602;38.096;2022-11-15T06:31:46;2.53;;;1.42;;
69779;SDS011;57052;55.602;38.096;2022-11-15T06:34:12;3.80;;;1.40;;
69779;SDS011;57052;55.602;38.096;2022-11-15T06:36:37;4.90;;;1.08;;
69779;SDS011;57052;55.602;38.096;2022-11-15T06:39:03;3.90;;;1.30;;
69779;SDS011;57052;55.602;38.096;2022-11-15T06:41:36;3.80;;;1.40;;
69779;SDS011;57052;55.602;38.096;2022-11-15T06:44:02;3.42;;;1.30;;
69779;SDS011;57052;55.602;38.096;2022-11-15T06:46:28;3.58;;;1.50;;
69779;SDS011;57052;55.602;38.096;2022-11-15T06:48:53;2.75;;;1.15;;
69779;SDS011;57052;55.602;38.096;2022-11-15T06:51:20;2.25;;;1.33;;
69779;SDS011;57052;55.602;38.096;2022-11-15T06:53:45;4.63;;;1.60;;
69779;SDS011;57052;55.602;38.096;2022-11-15T06:56:11;6.25;;;1.40;;
69779;SDS011;57052;55.602;38.096;2022-11-15T06:58:37;5.13;;;1.27;;
69779;SDS011;57052;55.602;38.096;2022-11-15T07:01:04;3.72;;;1.40;;
69779;SDS011;57052;55.602;38.096;2022-11-15T07:03:31;3.30;;;1.25;;
69779;SDS011;57052;55.602;38.096;2022-11-15T07:05:59;3.08;;;1.40;;
69779;SDS011;57052;55.602;38.096;2022-11-15T07:08:26;2.55;;;1.38;;
69779;SDS011;57052;55.602;38.096;2022-11-15T07:10:53;4.88;;;1.52;;
69779;SDS011;57052;55.602;38.096;2022-11-15T07:13:19;2.45;;;1.13;;
69779;SDS011;57052;55.602;38.096;2022-11-15T07:15:44;3.83;;;1.42;;
69779;SDS011;57052;55.602;38.096;2022-11-15T07:18:10;5.82;;;1.60;;
69779;SDS011;57052;55.602;38.096;2022-11-15T07:20:35;4.82;;;1.60;;
69779;SDS011;57052;55.602;38.096;2022-11-15T07:23:02;12.00;;;3.80;;
69779;SDS011;57052;55.602;38.096;2022-11-15T07:25:29;5.70;;;2.22;;
69779;SDS011;57052;55.602;38.096;2022-11-15T07:27:55;4.55;;;2.08;;
69779;SDS011;57052;55.602;38.096;2022-11-15T07:30:22;4.22;;;1.75;;
69779;SDS011;57052;55.602;38.096;2022-11-15T07:32:52;5.10;;;2.15;;
69779;SDS011;57052;55.602;38.096;2022-11-15T07:35:21;4.68;;;2.05;;
69779;SDS011;57052;55.602;38.096;2022-11-15T07:37:54;6.25;;;2.00;;
69779;SDS011;57052;55.602;38.096;2022-11-15T07:40:21;6.50;;;2.13;;
69779;SDS011;57052;55.602;38.096;2022-11-15T07:42:47;4.30;;;1.98;;
69779;SDS011;57052;55.602;38.096;2022-11-15T07:45:20;4.95;;;2.20;;
69779;SDS011;57052;55.602;38.096;2022-11-15T07:47:47;6.97;;;2.22;;
69779;SDS011;57052;55.602;38.096;2022-11-15T07:50:14;4.18;;;2.10;;
69779;SDS011;57052;55.602;38.096;2022-11-15T07:52:39;6.30;;;2.38;;
69779;SDS011;57052;55.602;38.096;2022-11-15T07:55:05;6.47;;;2.40;;
69779;SDS011;57052;55.602;38.096;2022-11-15T07:57:31;5.88;;;2.17;;
69779;SDS011;57052;55.602;38.096;2022-11-15T07:59:58;5.00;;;2.40;;
69779;SDS011;57052;55.602;38.096;2022-11-15T08:02:23;7.57;;;2.30;;
69779;SDS011;57052;55.602;38.096;2022-11-15T08:04:49;5.80;;;2.50;;
69779;SDS011;57052;55.602;38.096;2022-11-15T08:07:14;4.20;;;2.30;;
69779;SDS011;57052;55.602;38.096;2022-11-15T08:09:40;9.45;;;2.08;;
69779;SDS011;57052;55.602;38.096;2022-11-15T08:12:06;3.92;;;2.10;;
69779;SDS011;57052;55.602;38.096;2022-11-15T08:14:31;6.40;;;2.53;;
69779;SDS011;57052;55.602;38.096;2022-11-15T08:16:57;7.45;;;2.10;;
69779;SDS011;57052;55.602;38.096;2022-11-15T08:19:23;4.70;;;1.85;;
69779;SDS011;57052;55.602;38.096;2022-11-15T08:21:49;4.63;;;1.75;;
69779;SDS011;57052;55.602;38.096;2022-11-15T08:24:14;4.40;;;1.70;;
69779;SDS011;57052;55.602;38.096;2022-11-15T08:26:40;7.97;;;2.15;;
69779;SDS011;57052;55.602;38.096;2022-11-15T08:29:06;4.90;;;1.83;;
69779;SDS011;57052;55.602;38.096;2022-11-15T08:31:34;8.00;;;1.90;;
69779;SDS011;57052;55.602;38.096;2022-11-15T08:34:01;2.88;;;1.30;;
69779;SDS011;57052;55.602;38.096;2022-11-15T08:36:27;5.20;;;1.85;;
69779;SDS011;57052;55.602;38.096;2022-11-15T08:38:53;3.65;;;1.83;;
69779;SDS011;57052;55.602;38.096;2022-11-15T08:41:31;7.10;;;1.70;;
69779;SDS011;57052;55.602;38.096;2022-11-15T08:43:58;3.83;;;2.00;;
69779;SDS011;57052;55.602;38.096;2022-11-15T08:46:24;5.25;;;1.73;;
69779;SDS011;57052;55.602;38.096;2022-11-15T08:48:50;7.55;;;1.65;;
69779;SDS011;57052;55.602;38.096;2022-11-15T08:51:15;6.82;;;1.88;;
69779;SDS011;57052;55.602;38.096;2022-11-15T08:53:41;4.65;;;2.20;;
69779;SDS011;57052;55.602;38.096;2022-11-15T08:56:08;7.35;;;2.65;;
69779;SDS011;57052;55.602;38.096;2022-11-15T08:58:34;5.75;;;2.10;;
69779;SDS011;57052;55.602;38.096;2022-11-15T09:01:00;5.28;;;2.13;;
69779;SDS011;57052;55.602;38.096;2022-11-15T09:03:26;6.65;;;2.00;;
69779;SDS011;57052;55.602;38.096;2022-11-15T09:05:55;10.05;;;2.38;;
69779;SDS011;57052;55.602;38.096;2022-11-15T09:08:24;5.50;;;2.30;;
69779;SDS011;57052;55.602;38.096;2022-11-15T09:10:54;10.95;;;2.20;;
69779;SDS011;57052;55.602;38.096;2022-11-15T09:13:19;8.10;;;2.60;;
69779;SDS011;57052;55.602;38.096;2022-11-15T09:15:45;7.25;;;2.67;;
69779;SDS011;57052;55.602;38.096;2022-11-15T09:18:10;8.20;;;2.30;;
69779;SDS011;57052;55.602;38.096;2022-11-15T09:20:36;6.57;;;1.77;;
69779;SDS011;57052;55.602;38.096;2022-11-15T09:23:02;5.47;;;2.00;;
69779;SDS011;57052;55.602;38.096;2022-11-15T09:25:29;7.45;;;2.25;;
69779;SDS011;57052;55.602;38.096;2022-11-15T09:27:55;6.80;;;2.38;;
69779;SDS011;57052;55.602;38.096;2022-11-15T09:30:20;6.53;;;2.15;;
69779;SDS011;57052;55.602;38.096;2022-11-15T09:32:46;8.18;;;2.50;;
69779;SDS011;57052;55.602;38.096;2022-11-15T09:35:12;8.40;;;2.22;;
69779;SDS011;57052;55.602;38.096;2022-11-15T09:37:37;5.05;;;2.50;;
69779;SDS011;57052;55.602;38.096;2022-11-15T09:40:03;6.68;;;2.20;;
69779;SDS011;57052;55.602;38.096;2022-11-15T09:48:51;5.97;;;1.95;;
69779;SDS011;57052;55.602;38.096;2022-11-15T09:51:39;6.05;;;2.10;;
69779;SDS011;57052;55.602;38.096;2022-11-15T09:54:28;8.85;;;2.22;;
69779;SDS011;57052;55.602;38.096;2022-11-15T09:57:09;5.13;;;2.00;;
69779;SDS011;57052;55.602;38.096;2022-11-15T09:59:41;9.45;;;2.30;;
69779;SDS011;57052;55.602;38.096;2022-11-15T10:05:03;5.28;;;1.63;;
69779;SDS011;57052;55.602;38.096;2022-11-15T10:07:32;9.07;;;1.83;;
69779;SDS011;57052;55.602;38.096;2022-11-15T10:12:47;5.57;;;1.60;;
69779;SDS011;57052;55.602;38.096;2022-11-15T10:15:17;8.35;;;2.15;;
69779;SDS011;57052;55.602;38.096;2022-11-15T10:20:38;5.70;;;1.80;;
69779;SDS011;57052;55.602;38.096;2022-11-15T10:23:25;4.13;;;2.00;;
69779;SDS011;57052;55.602;38.096;2022-11-15T10:25:55;6.60;;;1.98;;
69779;SDS011;57052;55.602;38.096;2022-11-15T10:28:27;5.15;;;1.70;;
69779;SDS011;57052;55.602;38.096;2022-11-15T10:30:55;8.13;;;1.98;;
69779;SDS011;57052;55.602;38.096;2022-11-15T10:33:27;4.55;;;1.75;;
69779;SDS011;57052;55.602;38.096;2022-11-15T10:39:10;8.80;;;2.05;;
69779;SDS011;57052;55.602;38.096;2022-11-15T10:49:28;10.77;;;2.38;;
69779;SDS011;57052;55.602;38.096;2022-11-15T10:51:57;8.15;;;2.08;;
69779;SDS011;57052;55.602;38.096;2022-11-15T10:57:18;9.15;;;2.30;;
69779;SDS011;57052;55.602;38.096;2022-11-15T10:59:50;7.85;;;2.00;;
69779;SDS011;57052;55.602;38.096;2022-11-15T11:07:56;5.30;;;1.95;;
69779;SDS011;57052;55.602;38.096;2022-11-15T11:10:53;5.25;;;1.90;;
69779;SDS011;57052;55.602;38.096;2022-11-15T11:13:24;6.43;;;2.00;;
69779;SDS011;57052;55.602;38.096;2022-11-15T11:15:54;6.93;;;1.80;;
69779;SDS011;57052;55.602;38.096;2022-11-15T11:18:57;5.65;;;2.17;;
69779;SDS011;57052;55.602;38.096;2022-11-15T11:24:44;8.57;;;2.55;;
69779;SDS011;57052;55.602;38.096;2022-11-15T11:38:39;9.07;;;2.45;;
69779;SDS011;57052;55.602;38.096;2022-11-15T12:00:23;5.95;;;1.90;;
69779;SDS011;57052;55.602;38.096;2022-11-15T12:10:54;3.70;;;1.80;;
69779;SDS011;57052;55.602;38.096;2022-11-15T12:13:26;4.38;;;1.85;;
69779;SDS011;57052;55.602;38.096;2022-11-15T12:18:24;7.60;;;2.08;;
69779;SDS011;57052;55.602;38.096;2022-11-15T12:20:57;5.40;;;1.65;;
69779;SDS011;57052;55.602;38.096;2022-11-15T12:23:32;3.65;;;1.88;;
69779;SDS011;57052;55.602;38.096;2022-11-15T12:26:25;6.85;;;1.70;;
69779;SDS011;57052;55.602;38.096;2022-11-15T12:28:57;4.35;;;1.67;;
69779;SDS011;57052;55.602;38.096;2022-11-15T12:34:28;5.45;;;1.83;;
69779;SDS011;57052;55.602;38.096;2022-11-15T12:37:01;4.60;;;1.67;;
69779;SDS011;57052;55.602;38.096;2022-11-15T12:40:04;9.40;;;2.03;;
69779;SDS011;57052;55.602;38.096;2022-11-15T12:42:42;6.03;;;1.58;;
69779;SDS011;57052;55.602;38.096;2022-11-15T12:45:24;6.13;;;1.38;;
69779;SDS011;57052;55.602;38.096;2022-11-15T12:48:47;3.30;;;1.50;;
69779;SDS011;57052;55.602;38.096;2022-11-15T12:51:03;2.90;;;1.50;;
69779;SDS011;57052;55.602;38.096;2022-11-15T12:53:33;5.13;;;1.90;;
69779;SDS011;57052;55.602;38.096;2022-11-15T12:56:09;5.80;;;1.80;;
69779;SDS011;57052;55.602;38.096;2022-11-15T12:58:57;6.03;;;1.48;;
69779;SDS011;57052;55.602;38.096;2022-11-15T13:06:59;7.85;;;2.03;;
69779;SDS011;57052;55.602;38.096;2022-11-15T13:11:55;3.10;;;1.50;;
69779;SDS011;57052;55.602;38.096;2022-11-15T13:17:32;4.10;;;1.73;;
69779;SDS011;57052;55.602;38.096;2022-11-15T13:27:57;6.28;;;2.33;;
69779;SDS011;57052;55.602;38.096;2022-11-15T13:30:31;8.20;;;2.63;;
69779;SDS011;57052;55.602;38.096;2022-11-15T13:33:05;6.72;;;2.95;;
69779;SDS011;57052;55.602;38.096;2022-11-15T13:35:45;8.52;;;2.80;;
69779;SDS011;57052;55.602;38.096;2022-11-15T13:38:25;7.45;;;2.78;;
69779;SDS011;57052;55.602;38.096;2022-11-15T13:40:52;7.65;;;2.50;;
69779;SDS011;57052;55.602;38.096;2022-11-15T13:46:14;15.52;;;4.97;;
69779;SDS011;57052;55.602;38.096;2022-11-15T13:48:44;12.07;;;5.35;;
69779;SDS011;57052;55.602;38.096;2022-11-15T13:57:25;7.45;;;2.92;;
69779;SDS011;57052;55.602;38.096;2022-11-15T14:00:04;7.47;;;2.45;;
69779;SDS011;57052;55.602;38.096;2022-11-15T14:02:32;7.05;;;2.22;;
69779;SDS011;57052;55.602;38.096;2022-11-15T14:07:55;6.22;;;2.47;;
69779;SDS011;57052;55.602;38.096;2022-11-15T14:13:09;6.57;;;2.15;;
69779;SDS011;57052;55.602;38.096;2022-11-15T14:15:54;7.75;;;2.38;;
69779;SDS011;57052;55.602;38.096;2022-11-15T14:18:40;5.30;;;2.20;;
69779;SDS011;57052;55.602;38.096;2022-11-15T14:21:11;7.78;;;2.75;;
69779;SDS011;57052;55.602;38.096;2022-11-15T14:23:36;12.95;;;2.58;;
69779;SDS011;57052;55.602;38.096;2022-11-15T14:26:03;7.07;;;2.22;;
69779;SDS011;57052;55.602;38.096;2022-11-15T14:28:30;6.15;;;2.50;;
69779;SDS011;57052;55.602;38.096;2022-11-15T14:30:59;8.02;;;2.85;;
69779;SDS011;57052;55.602;38.096;2022-11-15T14:35:51;4.88;;;2.30;;
69779;SDS011;57052;55.602;38.096;2022-11-15T14:38:17;9.88;;;2.90;;
69779;SDS011;57052;55.602;38.096;2022-11-15T14:40:43;6.20;;;2.17;;
69779;SDS011;57052;55.602;38.096;2022-11-15T14:43:09;5.28;;;2.28;;
69779;SDS011;57052;55.602;38.096;2022-11-15T14:45:36;8.13;;;2.60;;
69779;SDS011;57052;55.602;38.096;2022-11-15T14:48:02;5.07;;;2.17;;
69779;SDS011;57052;55.602;38.096;2022-11-15T14:50:31;5.70;;;2.28;;
69779;SDS011;57052;55.602;38.096;2022-11-15T14:52:58;7.80;;;2.35;;
69779;SDS011;57052;55.602;38.096;2022-11-15T14:55:29;5.63;;;1.83;;
69779;SDS011;57052;55.602;38.096;2022-11-15T14:57:58;7.22;;;2.30;;
69779;SDS011;57052;55.602;38.096;2022-11-15T15:00:29;6.95;;;2.25;;
69779;SDS011;57052;55.602;38.096;2022-11-15T15:02:58;7.57;;;2.00;;
69779;SDS011;57052;55.602;38.096;2022-11-15T15:05:25;7.30;;;2.25;;
69779;SDS011;57052;55.602;38.096;2022-11-15T15:08:04;5.22;;;1.83;;
69779;SDS011;57052;55.602;38.096;2022-11-15T15:10:31;7.90;;;2.13;;
69779;SDS011;57052;55.602;38.096;2022-11-15T15:13:00;6.30;;;2.40;;
69779;SDS011;57052;55.602;38.096;2022-11-15T15:15:29;8.25;;;2.28;;
69779;SDS011;57052;55.602;38.096;2022-11-15T15:17:58;6.73;;;2.50;;
69779;SDS011;57052;55.602;38.096;2022-11-15T15:20:24;7.47;;;2.15;;
69779;SDS011;57052;55.602;38.096;2022-11-15T15:22:49;5.78;;;2.22;;
69779;SDS011;57052;55.602;38.096;2022-11-15T15:25:23;6.35;;;2.33;;
69779;SDS011;57052;55.602;38.096;2022-11-15T15:27:52;8.57;;;2.28;;
69779;SDS011;57052;55.602;38.096;2022-11-15T15:30:19;7.55;;;2.30;;
69779;SDS011;57052;55.602;38.096;2022-11-15T15:32:46;4.80;;;1.60;;
69779;SDS011;57052;55.602;38.096;2022-11-15T15:35:12;4.70;;;1.80;;
69779;SDS011;57052;55.602;38.096;2022-11-15T15:37:39;4.45;;;1.77;;
69779;SDS011;57052;55.602;38.096;2022-11-15T15:40:24;4.20;;;1.85;;
69779;SDS011;57052;55.602;38.096;2022-11-15T15:42:53;4.47;;;1.75;;
69779;SDS011;57052;55.602;38.096;2022-11-15T15:45:19;4.00;;;2.38;;
69779;SDS011;57052;55.602;38.096;2022-11-15T15:47:45;6.43;;;2.47;;
69779;SDS011;57052;55.602;38.096;2022-11-15T15:52:45;5.80;;;2.33;;
69779;SDS011;57052;55.602;38.096;2022-11-15T15:55:10;6.75;;;2.42;;
69779;SDS011;57052;55.602;38.096;2022-11-15T15:57:36;5.20;;;2.10;;
69779;SDS011;57052;55.602;38.096;2022-11-15T16:00:03;7.32;;;2.40;;
69779;SDS011;57052;55.602;38.096;2022-11-15T16:02:30;3.55;;;2.20;;
69779;SDS011;57052;55.602;38.096;2022-11-15T16:04:55;8.23;;;2.20;;
69779;SDS011;57052;55.602;38.096;2022-11-15T16:07:22;4.72;;;1.98;;
69779;SDS011;57052;55.602;38.096;2022-11-15T16:09:53;5.38;;;2.53;;
69779;SDS011;57052;55.602;38.096;2022-11-15T16:12:29;6.93;;;2.63;;
69779;SDS011;57052;55.602;38.096;2022-11-15T16:14:56;6.55;;;2.15;;
69779;SDS011;57052;55.602;38.096;2022-11-15T16:17:23;5.10;;;2.50;;
69779;SDS011;57052;55.602;38.096;2022-11-15T16:22:21;4.85;;;2.42;;
69779;SDS011;57052;55.602;38.096;2022-11-15T16:24:49;6.25;;;2.20;;
69779;SDS011;57052;55.602;38.096;2022-11-15T16:27:16;8.68;;;2.60;;
69779;SDS011;57052;55.602;38.096;2022-11-15T16:29:43;8.95;;;2.95;;
69779;SDS011;57052;55.602;38.096;2022-11-15T16:32:09;5.30;;;2.60;;
69779;SDS011;57052;55.602;38.096;2022-11-15T16:34:35;6.25;;;2.78;;
69779;SDS011;57052;55.602;38.096;2022-11-15T16:37:04;8.02;;;3.10;;
69779;SDS011;57052;55.602;38.096;2022-11-15T16:39:30;8.35;;;2.88;;
69779;SDS011;57052;55.602;38.096;2022-11-15T16:41:59;5.38;;;2.40;;
69779;SDS011;57052;55.602;38.096;2022-11-15T16:44:25;6.75;;;2.50;;
69779;SDS011;57052;55.602;38.096;2022-11-15T16:46:51;6.28;;;2.70;;
69779;SDS011;57052;55.602;38.096;2022-11-15T16:49:20;5.65;;;2.55;;
69779;SDS011;57052;55.602;38.096;2022-11-15T16:51:47;9.20;;;2.33;;
69779;SDS011;57052;55.602;38.096;2022-11-15T16:54:14;8.90;;;2.47;;
69779;SDS011;57052;55.602;38.096;2022-11-15T16:56:39;5.47;;;2.30;;
69779;SDS011;57052;55.602;38.096;2022-11-15T16:59:06;4.00;;;2.30;;
69779;SDS011;57052;55.602;38.096;2022-11-15T17:01:36;5.30;;;2.05;;
69779;SDS011;57052;55.602;38.096;2022-11-15T17:04:11;4.85;;;2.20;;
69779;SDS011;57052;55.602;38.096;2022-11-15T17:06:38;8.52;;;2.85;;
69779;SDS011;57052;55.602;38.096;2022-11-15T17:09:05;7.35;;;2.40;;
69779;SDS011;57052;55.602;38.096;2022-11-15T17:11:34;4.38;;;2.25;;
69779;SDS011;57052;55.602;38.096;2022-11-15T17:14:03;5.82;;;2.50;;
69779;SDS011;57052;55.602;38.096;2022-11-15T17:16:29;5.15;;;1.88;;
69779;SDS011;57052;55.602;38.096;2022-11-15T17:18:55;6.70;;;1.85;;
69779;SDS011;57052;55.602;38.096;2022-11-15T17:21:21;7.00;;;2.25;;
69779;SDS011;57052;55.602;38.096;2022-11-15T17:23:50;5.80;;;2.20;;
69779;SDS011;57052;55.602;38.096;2022-11-15T17:26:17;4.75;;;2.17;;
69779;SDS011;57052;55.602;38.096;2022-11-15T17:28:46;4.65;;;2.05;;
69779;SDS011;57052;55.602;38.096;2022-11-15T17:31:12;5.40;;;2.10;;